createdAt,value
2019-04-10T00:00:51.286Z,50.61
2019-04-10T00:04:00.789Z,50.85
2019-04-10T00:07:20.837Z,50.92
2019-04-10T00:10:29.959Z,51.00
2019-04-10T00:13:38.621Z,51.13
2019-04-10T00:16:47.133Z,51.02
2019-04-10T00:19:56.029Z,50.85
2019-04-10T00:23:04.679Z,50.89
2019-04-10T00:26:13.255Z,50.95
2019-04-10T00:29:22.408Z,51.06
2019-04-10T00:32:32.079Z,51.31
2019-04-10T00:35:51.960Z,51.08
2019-04-10T00:39:00.670Z,51.23
2019-04-10T00:42:10.698Z,51.21
2019-04-10T00:45:29.700Z,51.21
2019-04-10T00:48:38.260Z,51.68
2019-04-10T00:51:47.819Z,51.68
2019-04-10T00:55:07.766Z,51.46
2019-04-10T00:58:16.372Z,51.53
2019-04-10T01:01:25.001Z,51.61
2019-04-10T01:04:34.165Z,51.68
2019-04-10T01:07:44.641Z,51.19
2019-04-10T01:10:53.269Z,51.16
2019-04-10T01:14:01.879Z,51.48
2019-04-10T01:17:11.696Z,51.59
2019-04-10T01:20:20.350Z,51.51
2019-04-10T01:23:29.038Z,51.29
2019-04-10T01:26:37.602Z,51.34
2019-04-10T01:29:46.166Z,51.58
2019-04-10T01:32:54.806Z,51.66
2019-04-10T01:36:03.359Z,51.77
2019-04-10T01:39:15.905Z,51.91
2019-04-10T01:42:24.880Z,52.01
2019-04-10T01:45:33.645Z,52.12
2019-04-10T01:48:42.311Z,52.03
2019-04-10T01:51:51.817Z,52.09
2019-04-10T01:55:20.327Z,52.37
2019-04-10T01:58:23.219Z,52.50
2019-04-10T02:02:07.126Z,52.56
2019-04-10T02:05:16.530Z,52.49
2019-04-10T02:08:25.772Z,52.46
2019-04-10T02:11:34.413Z,52.69
2019-04-10T02:14:43.009Z,52.72
2019-04-10T02:17:51.559Z,52.97
2019-04-10T02:21:01.085Z,52.86
2019-04-10T02:24:09.845Z,52.52
2019-04-10T02:27:18.493Z,52.57
2019-04-10T02:30:27.080Z,52.75
2019-04-10T02:33:35.811Z,53.04
2019-04-10T02:36:44.663Z,53.32
2019-04-10T02:39:57.948Z,53.21
2019-04-10T02:43:05.444Z,52.92
2019-04-10T02:46:13.820Z,53.02
2019-04-10T02:49:22.542Z,52.92
2019-04-10T02:52:32.805Z,52.84
2019-04-10T02:55:43.132Z,52.77
2019-04-10T02:58:52.030Z,52.93
2019-04-10T03:02:11.669Z,52.83
2019-04-10T03:05:22.967Z,52.72
2019-04-10T03:08:46.806Z,52.90
2019-04-10T03:11:41.945Z,53.08
2019-04-10T03:15:03.264Z,53.15
2019-04-10T03:18:12.719Z,53.21
2019-04-10T03:21:20.779Z,53.19
2019-04-10T03:24:29.558Z,53.23
2019-04-10T03:27:38.688Z,53.19
2019-04-10T03:30:59.970Z,53.18
2019-04-10T03:34:22.667Z,53.37
2019-04-10T03:37:31.955Z,53.57
2019-04-10T03:40:41.534Z,53.43
2019-04-10T03:43:50.449Z,53.53
2019-04-10T03:46:59.008Z,53.84
2019-04-10T03:50:06.675Z,53.68
2019-04-10T03:53:26.424Z,53.69
2019-04-10T03:56:35.997Z,53.78
2019-04-10T03:59:45.455Z,53.99
2019-04-10T04:03:04.428Z,53.97
2019-04-10T04:06:13.025Z,53.99
2019-04-10T04:09:21.748Z,53.87
2019-04-10T04:12:31.352Z,53.99
2019-04-10T04:15:40.062Z,54.04
2019-04-10T04:18:49.185Z,53.88
2019-04-10T04:21:58.458Z,54.13
2019-04-10T04:25:07.258Z,54.17
2019-04-10T04:28:16.859Z,54.15
2019-04-10T04:31:25.621Z,54.35
2019-04-10T04:34:45.435Z,54.52
2019-04-10T04:37:54.891Z,54.58
2019-04-10T04:41:04.842Z,54.54
2019-04-10T04:44:14.517Z,54.39
2019-04-10T04:47:33.481Z,54.27
2019-04-10T04:50:42.125Z,54.58
2019-04-10T04:53:50.865Z,54.70
2019-04-10T04:57:00.154Z,54.64
2019-04-10T05:00:19.440Z,54.68
2019-04-10T05:03:28.986Z,54.61
2019-04-10T05:06:37.668Z,54.61
2019-04-10T05:09:46.153Z,54.93
2019-04-10T05:13:06.122Z,54.77
2019-04-10T05:16:14.754Z,54.46
2019-04-10T05:19:23.474Z,54.54
2019-04-10T05:22:32.239Z,54.63
2019-04-10T05:25:41.493Z,54.38
2019-04-10T05:28:50.822Z,54.20
2019-04-10T05:32:00.622Z,54.07
2019-04-10T05:35:10.120Z,53.87
2019-04-10T05:38:29.290Z,53.81
2019-04-10T05:41:38.025Z,53.58
2019-04-10T05:44:46.530Z,53.50
2019-04-10T05:47:56.964Z,53.27
2019-04-10T05:51:07.927Z,53.15
2019-04-10T05:54:17.119Z,52.93
2019-04-10T05:57:26.752Z,52.32
2019-04-10T06:00:35.433Z,51.96
2019-04-10T06:03:45.619Z,51.62
2019-04-10T06:06:54.835Z,51.48
2019-04-10T06:10:05.662Z,51.17
2019-04-10T06:13:14.874Z,50.96
2019-04-10T06:16:24.013Z,51.02
2019-04-10T06:19:32.563Z,50.61
2019-04-10T06:22:47.481Z,50.48
2019-04-10T06:25:56.520Z,50.23
2019-04-10T06:29:05.139Z,50.17
2019-04-10T06:32:13.750Z,50.25
2019-04-10T06:35:32.582Z,50.04
2019-04-10T06:38:41.277Z,49.96
2019-04-10T06:41:50.833Z,49.62
2019-04-10T06:45:00.645Z,48.61
2019-04-10T06:48:32.160Z,47.97
2019-04-10T06:51:41.041Z,47.12
2019-04-10T06:55:15.368Z,46.94
2019-04-10T06:58:23.682Z,45.71
2019-04-10T07:01:43.474Z,45.67
2019-04-10T07:04:59.918Z,45.38
2019-04-10T07:08:19.863Z,44.44
2019-04-10T07:11:31.375Z,44.01
2019-04-10T07:14:44.025Z,42.87
2019-04-10T07:18:00.966Z,42.45
2019-04-10T07:21:10.637Z,42.05
2019-04-10T07:24:18.870Z,40.56
2019-04-10T07:27:27.797Z,40.08
2019-04-10T07:30:38.008Z,40.24
2019-04-10T07:33:57.149Z,39.01
2019-04-10T07:37:05.928Z,39.65
2019-04-10T07:40:14.752Z,39.64
2019-04-10T07:43:27.187Z,38.46
2019-04-10T07:46:44.432Z,37.22
2019-04-10T07:49:53.067Z,36.60
2019-04-10T07:53:01.977Z,35.27
2019-04-10T07:56:14.935Z,34.01
2019-04-10T07:59:20.976Z,33.53
2019-04-10T08:02:29.716Z,32.45
2019-04-10T08:05:38.542Z,32.71
2019-04-10T08:08:47.076Z,31.39
2019-04-10T08:11:56.726Z,31.35
2019-04-10T08:15:16.781Z,31.33
2019-04-10T08:18:25.653Z,31.08
2019-04-10T08:21:34.337Z,30.93
2019-04-10T08:24:45.744Z,30.82
2019-04-10T08:27:54.277Z,31.82
2019-04-10T08:31:03.020Z,30.87
2019-04-10T08:34:11.715Z,30.61
2019-04-10T08:37:18.884Z,30.26
2019-04-10T08:40:27.882Z,29.85
2019-04-10T08:43:48.115Z,28.18
2019-04-10T08:46:58.135Z,28.19
2019-04-10T08:50:07.997Z,27.87
2019-04-10T08:53:16.527Z,27.76
2019-04-10T08:56:25.248Z,27.08
2019-04-10T08:59:32.413Z,28.51
2019-04-10T09:02:42.242Z,28.95
2019-04-10T09:05:51.119Z,28.98
2019-04-10T09:08:59.882Z,30.10
2019-04-10T09:12:09.383Z,30.04
2019-04-10T09:15:18.212Z,30.16
2019-04-10T09:18:27.390Z,29.55
2019-04-10T09:21:47.824Z,29.53
2019-04-10T09:24:56.605Z,29.36
2019-04-10T09:28:06.355Z,29.78
2019-04-10T09:31:15.678Z,29.90
2019-04-10T09:34:25.584Z,30.12
2019-04-10T09:37:34.535Z,29.67
2019-04-10T09:40:44.603Z,30.83
2019-04-10T09:43:56.168Z,31.24
2019-04-10T09:47:05.553Z,31.43
2019-04-10T09:50:15.262Z,30.99
2019-04-10T09:53:24.560Z,30.79
2019-04-10T09:56:44.196Z,29.69
2019-04-10T09:59:52.984Z,28.37
2019-04-10T10:03:01.638Z,27.29
2019-04-10T10:06:27.096Z,26.82
2019-04-10T10:09:31.032Z,26.85
2019-04-10T10:12:40.741Z,26.88
2019-04-10T10:15:49.531Z,25.51
2019-04-10T10:18:58.188Z,25.04
2019-04-10T10:22:07.605Z,24.42
2019-04-10T10:25:17.384Z,23.78
2019-04-10T10:28:27.036Z,23.47
2019-04-10T10:31:36.121Z,23.71
2019-04-10T10:34:55.283Z,24.65
2019-04-10T10:38:05.299Z,24.96
2019-04-10T10:41:15.149Z,24.98
2019-04-10T10:44:23.861Z,25.06
2019-04-10T10:47:32.731Z,24.90
2019-04-10T10:50:41.612Z,25.15
2019-04-10T10:53:50.494Z,25.17
2019-04-10T10:56:59.237Z,26.11
2019-04-10T11:00:11.424Z,25.79
2019-04-10T11:03:19.010Z,24.48
2019-04-10T11:06:29.107Z,24.00
2019-04-10T11:09:38.015Z,22.79
2019-04-10T11:12:46.706Z,22.46
2019-04-10T11:15:56.248Z,21.59
2019-04-10T11:19:15.456Z,21.03
2019-04-10T11:22:25.720Z,21.04
2019-04-10T11:25:35.841Z,20.50
2019-04-10T11:28:45.611Z,20.13
2019-04-10T11:31:55.499Z,20.47
2019-04-10T11:35:04.644Z,20.07
2019-04-10T11:38:25.677Z,19.52
2019-04-10T11:41:34.019Z,20.09
2019-04-10T11:44:46.555Z,20.00
2019-04-10T11:47:53.021Z,20.22
2019-04-10T11:51:03.198Z,20.30
2019-04-10T11:54:14.578Z,20.29
2019-04-10T11:57:22.898Z,20.53
2019-04-10T12:00:47.310Z,20.00
2019-04-10T12:03:54.322Z,20.34
2019-04-10T12:07:02.021Z,20.65
2019-04-10T12:13:32.451Z,20.75
2019-04-10T12:16:41.217Z,20.49
2019-04-10T12:19:49.900Z,20.82
2019-04-10T12:22:58.719Z,21.11
2019-04-10T12:26:07.743Z,20.87
2019-04-10T12:29:18.351Z,19.89
2019-04-10T12:32:27.063Z,19.38
2019-04-10T12:35:36.169Z,19.39
2019-04-10T12:38:46.530Z,20.17
2019-04-10T12:41:55.509Z,19.48
2019-04-10T12:45:06.174Z,19.06
2019-04-10T12:48:14.929Z,20.30
2019-04-10T12:51:23.635Z,19.95
2019-04-10T12:54:33.300Z,20.37
2019-04-10T12:57:43.411Z,21.20
2019-04-10T13:00:52.950Z,21.85
2019-04-10T13:04:01.710Z,21.78
2019-04-10T13:07:11.451Z,21.41
2019-04-10T13:10:20.464Z,21.42
2019-04-10T13:13:30.320Z,20.96
2019-04-10T13:16:38.984Z,20.17
2019-04-10T13:19:47.673Z,20.31
2019-04-10T13:22:56.381Z,20.67
2019-04-10T13:26:06.402Z,21.15
2019-04-10T13:29:16.200Z,21.19
2019-04-10T13:32:25.560Z,22.43
2019-04-10T13:35:34.413Z,23.50
2019-04-10T13:38:42.987Z,23.75
2019-04-10T13:41:52.552Z,24.04
2019-04-10T13:45:01.342Z,24.65
2019-04-10T13:48:10.272Z,25.12
2019-04-10T13:51:19.297Z,25.81
2019-04-10T13:54:38.909Z,25.97
2019-04-10T13:57:47.729Z,25.75
2019-04-10T14:00:56.636Z,25.35
2019-04-10T14:04:05.290Z,25.44
2019-04-10T14:07:25.363Z,26.17
2019-04-10T14:10:35.305Z,26.68
2019-04-10T14:13:44.272Z,26.75
2019-04-10T14:17:07.520Z,25.77
2019-04-10T14:20:20.320Z,25.48
2019-04-10T14:23:31.415Z,25.66
2019-04-10T14:26:52.768Z,26.23
2019-04-10T14:30:00.920Z,26.14
2019-04-10T14:33:10.591Z,26.52
2019-04-10T14:36:20.830Z,26.48
2019-04-10T14:39:29.650Z,26.45
2019-04-10T14:42:38.495Z,26.76
2019-04-10T14:45:48.043Z,26.54
2019-04-10T14:48:56.944Z,26.54
2019-04-10T14:52:05.707Z,26.00
2019-04-10T14:55:14.550Z,26.12
2019-04-10T14:58:28.161Z,26.07
2019-04-10T15:01:35.910Z,25.68
2019-04-10T15:04:45.772Z,25.65
2019-04-10T15:07:55.352Z,25.66
2019-04-10T15:11:04.522Z,25.38
2019-04-10T15:14:15.212Z,25.84
2019-04-10T15:17:25.158Z,25.90
2019-04-10T15:20:34.006Z,25.84
2019-04-10T15:23:42.735Z,26.09
2019-04-10T15:26:51.567Z,25.99
2019-04-10T15:30:00.282Z,26.05
2019-04-10T15:33:10.029Z,25.98
2019-04-10T15:36:29.300Z,25.97
2019-04-10T15:39:39.932Z,25.84
2019-04-10T15:42:48.205Z,25.99
2019-04-10T15:45:56.977Z,25.68
2019-04-10T15:49:05.598Z,26.17
2019-04-10T15:52:14.519Z,26.13
2019-04-10T15:55:24.177Z,26.09
2019-04-10T15:58:35.330Z,26.20
2019-04-10T16:01:43.528Z,26.07
2019-04-10T16:04:53.363Z,25.73
2019-04-10T16:08:03.446Z,25.99
2019-04-10T16:11:50.159Z,26.20
2019-04-10T16:14:59.200Z,25.97
2019-04-10T16:18:13.556Z,26.53
2019-04-10T16:21:34.327Z,26.50
2019-04-10T16:24:42.993Z,26.35
2019-04-10T16:27:53.778Z,25.95
2019-04-10T16:31:13.151Z,25.22
2019-04-10T16:34:32.477Z,25.86
2019-04-10T16:37:51.628Z,25.88
2019-04-10T16:41:00.937Z,25.46
2019-04-10T16:44:11.065Z,25.43
2019-04-10T16:47:32.307Z,25.38
2019-04-10T16:50:41.065Z,25.57
2019-04-10T16:53:49.858Z,25.97
2019-04-10T16:56:58.516Z,26.40
2019-04-10T17:00:07.812Z,25.65
2019-04-10T17:03:17.623Z,26.50
2019-04-10T17:06:26.231Z,26.91
2019-04-10T17:09:36.517Z,27.21
2019-04-10T17:12:46.329Z,27.75
2019-04-10T17:15:55.625Z,28.15
2019-04-10T17:19:05.562Z,28.41
2019-04-10T17:22:29.216Z,28.96
2019-04-10T17:25:27.003Z,28.88
2019-04-10T17:28:38.625Z,29.30
2019-04-10T17:31:57.691Z,29.04
2019-04-10T17:35:09.513Z,29.07
2019-04-10T17:38:18.471Z,29.19
2019-04-10T17:41:27.940Z,29.71
2019-04-10T17:44:38.046Z,30.16
2019-04-10T17:47:57.969Z,30.78
2019-04-10T17:51:07.948Z,31.00
2019-04-10T17:54:28.182Z,31.52
2019-04-10T17:57:41.873Z,31.73
2019-04-10T18:00:52.040Z,32.02
2019-04-10T18:04:03.435Z,31.95
2019-04-10T18:07:12.048Z,32.33
2019-04-10T18:10:21.183Z,32.20
2019-04-10T18:13:31.858Z,32.63
2019-04-10T18:16:38.044Z,32.83
2019-04-10T18:19:46.823Z,33.58
2019-04-10T18:22:55.455Z,33.76
2019-04-10T18:26:02.653Z,34.03
2019-04-10T18:29:11.385Z,34.49
2019-04-10T18:32:20.004Z,34.84
2019-04-10T18:35:28.968Z,35.24
2019-04-10T18:38:37.641Z,35.64
2019-04-10T18:41:46.911Z,35.91
2019-04-10T18:44:55.544Z,36.13
2019-04-10T18:48:04.203Z,36.36
2019-04-10T18:51:13.892Z,36.80
2019-04-10T18:54:22.917Z,37.51
2019-04-10T18:57:33.734Z,37.66
2019-04-10T19:00:59.021Z,38.14
2019-04-10T19:04:18.282Z,38.81
2019-04-10T19:07:27.098Z,39.10
2019-04-10T19:10:36.627Z,39.46
2019-04-10T19:13:57.138Z,39.75
2019-04-10T19:17:09.066Z,39.81
2019-04-10T19:20:18.039Z,40.05
2019-04-10T19:23:27.170Z,40.17
2019-04-10T19:26:35.969Z,40.68
2019-04-10T19:29:44.592Z,40.96
2019-04-10T19:32:54.006Z,41.24
2019-04-10T19:36:03.634Z,41.34
2019-04-10T19:39:14.073Z,41.35
2019-04-10T19:42:22.834Z,41.85
2019-04-10T19:45:32.578Z,41.87
2019-04-10T19:48:41.534Z,42.02
2019-04-10T19:51:50.845Z,42.25
2019-04-10T19:55:29.564Z,42.49
2019-04-10T19:58:39.292Z,42.78
2019-04-10T20:01:52.765Z,43.26
2019-04-10T20:05:05.250Z,43.37
2019-04-10T20:08:21.713Z,43.66
2019-04-10T20:11:37.797Z,44.03
2019-04-10T20:14:53.234Z,44.30
2019-04-10T20:18:13.388Z,44.66
2019-04-10T20:21:26.443Z,44.75
2019-04-10T20:24:36.520Z,44.87
2019-04-10T20:27:45.867Z,45.22
2019-04-10T20:31:06.987Z,45.43
2019-04-10T20:34:15.737Z,45.87
2019-04-10T20:37:51.230Z,45.88
2019-04-10T20:41:00.497Z,46.00
2019-04-10T20:44:11.202Z,46.18
2019-04-10T20:47:22.615Z,46.30
2019-04-10T20:50:36.361Z,46.52
2019-04-10T20:53:46.313Z,47.05
2019-04-10T20:56:59.184Z,47.09
2019-04-10T21:00:11.625Z,47.02
2019-04-10T21:03:21.572Z,47.14
2019-04-10T21:06:31.764Z,47.26
2019-04-10T21:09:41.727Z,46.67
2019-04-10T21:12:52.467Z,46.77
2019-04-10T21:16:02.900Z,46.78
2019-04-10T21:19:11.113Z,46.93
2019-04-10T21:22:20.421Z,46.98
2019-04-10T21:25:29.056Z,46.86
2019-04-10T21:28:37.725Z,47.12
2019-04-10T21:32:05.208Z,47.10
2019-04-10T21:35:15.951Z,47.14
2019-04-10T21:38:24.528Z,46.97
2019-04-10T21:41:33.163Z,46.86
2019-04-10T21:44:42.916Z,47.16
2019-04-10T21:47:52.315Z,47.14
2019-04-10T21:51:01.168Z,47.29
2019-04-10T21:54:09.949Z,47.13
2019-04-10T21:57:18.618Z,46.87
2019-04-10T22:00:57.653Z,47.00
2019-04-10T22:04:06.584Z,47.38
2019-04-10T22:07:44.801Z,47.51
2019-04-10T22:11:14.890Z,47.53
2019-04-10T22:14:23.854Z,47.72
2019-04-10T22:17:32.566Z,47.32
2019-04-10T22:20:41.632Z,47.41
2019-04-10T22:23:51.126Z,47.51
2019-04-10T22:27:11.309Z,47.66
2019-04-10T22:30:21.077Z,47.71
2019-04-10T22:33:30.032Z,47.72
2019-04-10T22:36:39.506Z,47.80
2019-04-10T22:39:48.260Z,47.83
2019-04-10T22:42:57.502Z,48.00
2019-04-10T22:46:17.207Z,47.60
2019-04-10T22:49:26.616Z,47.68
2019-04-10T22:52:35.347Z,47.70
2019-04-10T22:55:44.572Z,47.82
2019-04-10T22:58:53.324Z,47.82
2019-04-10T23:02:07.199Z,47.66
2019-04-10T23:05:12.613Z,47.34
2019-04-10T23:08:21.309Z,47.38
2019-04-10T23:11:35.140Z,47.04
2019-04-10T23:14:40.415Z,46.88
2019-04-10T23:17:49.224Z,46.56
2019-04-10T23:20:58.583Z,46.32
2019-04-10T23:24:07.854Z,46.27
2019-04-10T23:27:17.671Z,45.74
2019-04-10T23:30:26.748Z,45.42
2019-04-10T23:33:45.723Z,45.42
2019-04-10T23:36:54.335Z,45.27
2019-04-10T23:40:14.673Z,45.36
2019-04-10T23:43:24.972Z,45.46
2019-04-10T23:46:34.674Z,45.61
2019-04-10T23:49:43.767Z,45.88
2019-04-10T23:53:02.871Z,46.48
2019-04-10T23:56:11.663Z,46.79
2019-04-10T23:59:20.601Z,46.93
